sensor_id;sensor_type;location;lat;lon;timestamp;temperature;humidity
2897;DHT22;1458;49.728;9.228;2023-08-12T00:00:25;17.60;99.90
2897;DHT22;1458;49.728;9.228;2023-08-12T00:02:53;17.50;99.90
2897;DHT22;1458;49.728;9.228;2023-08-12T00:05:20;17.60;99.90
2897;DHT22;1458;49.728;9.228;2023-08-12T00:07:48;17.60;99.90
2897;DHT22;1458;49.728;9.228;2023-08-12T00:10:16;17.60;99.90
2897;DHT22;1458;49.728;9.228;2023-08-12T00:12:45;17.60;99.90
2897;DHT22;1458;49.728;9.228;2023-08-12T00:15:12;17.50;99.90
2897;DHT22;1458;49.728;9.228;2023-08-12T00:17:40;17.60;99.90
2897;DHT22;1458;49.728;9.228;2023-08-12T00:20:08;17.60;99.90
2897;DHT22;1458;49.728;9.228;2023-08-12T00:22:36;17.60;99.90
2897;DHT22;1458;49.728;9.228;2023-08-12T00:25:05;17.60;99.90
2897;DHT22;1458;49.728;9.228;2023-08-12T00:27:33;17.50;99.90
2897;DHT22;1458;49.728;9.228;2023-08-12T00:30:02;17.40;99.90
2897;DHT22;1458;49.728;9.228;2023-08-12T00:32:31;17.30;99.90
2897;DHT22;1458;49.728;9.228;2023-08-12T00:34:58;17.10;99.90
2897;DHT22;1458;49.728;9.228;2023-08-12T00:37:26;17.00;99.90
2897;DHT22;1458;49.728;9.228;2023-08-12T00:39:53;17.20;99.90
2897;DHT22;1458;49.728;9.228;2023-08-12T00:42:23;17.20;99.90
2897;DHT22;1458;49.728;9.228;2023-08-12T00:44:50;17.30;99.90
2897;DHT22;1458;49.728;9.228;2023-08-12T00:47:19;17.30;99.90
2897;DHT22;1458;49.728;9.228;2023-08-12T00:49:48;17.20;99.90
2897;DHT22;1458;49.728;9.228;2023-08-12T00:52:16;17.20;99.90
2897;DHT22;1458;49.728;9.228;2023-08-12T00:54:44;17.00;99.90
2897;DHT22;1458;49.728;9.228;2023-08-12T00:57:13;17.10;99.90
2897;DHT22;1458;49.728;9.228;2023-08-12T00:59:41;17.20;99.90
2897;DHT22;1458;49.728;9.228;2023-08-12T01:02:12;17.30;99.90
2897;DHT22;1458;49.728;9.228;2023-08-12T01:04:41;17.40;99.90
2897;DHT22;1458;49.728;9.228;2023-08-12T01:07:08;17.40;99.90
2897;DHT22;1458;49.728;9.228;2023-08-12T01:09:37;17.50;99.90
2897;DHT22;1458;49.728;9.228;2023-08-12T01:12:12;17.40;99.90
2897;DHT22;1458;49.728;9.228;2023-08-12T01:14:46;17.40;99.90
2897;DHT22;1458;49.728;9.228;2023-08-12T01:17:19;17.40;99.90
2897;DHT22;1458;49.728;9.228;2023-08-12T01:19:48;17.40;99.90
2897;DHT22;1458;49.728;9.228;2023-08-12T01:22:21;17.40;99.90
2897;DHT22;1458;49.728;9.228;2023-08-12T01:24:52;17.40;99.90
2897;DHT22;1458;49.728;9.228;2023-08-12T01:27:19;17.40;99.90
2897;DHT22;1458;49.728;9.228;2023-08-12T01:29:50;17.50;99.90
2897;DHT22;1458;49.728;9.228;2023-08-12T01:32:24;17.50;99.90
2897;DHT22;1458;49.728;9.228;2023-08-12T01:35:01;17.60;99.90
2897;DHT22;1458;49.728;9.228;2023-08-12T01:37:33;17.50;99.90
2897;DHT22;1458;49.728;9.228;2023-08-12T01:40:03;17.50;99.90
2897;DHT22;1458;49.728;9.228;2023-08-12T01:42:33;17.50;99.90
2897;DHT22;1458;49.728;9.228;2023-08-12T01:45:01;17.50;99.90
2897;DHT22;1458;49.728;9.228;2023-08-12T01:47:29;17.50;99.90
2897;DHT22;1458;49.728;9.228;2023-08-12T01:49:58;17.50;99.90
2897;DHT22;1458;49.728;9.228;2023-08-12T01:52:25;17.50;99.90
2897;DHT22;1458;49.728;9.228;2023-08-12T01:54:54;17.50;99.90
2897;DHT22;1458;49.728;9.228;2023-08-12T01:57:23;17.50;99.90
2897;DHT22;1458;49.728;9.228;2023-08-12T01:59:51;17.60;99.90
2897;DHT22;1458;49.728;9.228;2023-08-12T02:02:18;17.60;99.90
2897;DHT22;1458;49.728;9.228;2023-08-12T02:04:46;17.60;99.90
2897;DHT22;1458;49.728;9.228;2023-08-12T02:07:13;17.60;99.90
2897;DHT22;1458;49.728;9.228;2023-08-12T02:09:41;17.60;99.90
2897;DHT22;1458;49.728;9.228;2023-08-12T02:12:08;17.70;99.90
2897;DHT22;1458;49.728;9.228;2023-08-12T02:14:37;17.70;99.90
2897;DHT22;1458;49.728;9.228;2023-08-12T02:17:05;17.70;99.90
2897;DHT22;1458;49.728;9.228;2023-08-12T02:19:32;17.70;99.90
2897;DHT22;1458;49.728;9.228;2023-08-12T02:22:02;17.70;99.90
2897;DHT22;1458;49.728;9.228;2023-08-12T02:24:30;17.80;99.90
2897;DHT22;1458;49.728;9.228;2023-08-12T02:26:58;17.80;99.90
2897;DHT22;1458;49.728;9.228;2023-08-12T02:29:26;17.80;99.90
2897;DHT22;1458;49.728;9.228;2023-08-12T02:31:54;17.80;99.90
2897;DHT22;1458;49.728;9.228;2023-08-12T02:34:22;17.80;99.90
2897;DHT22;1458;49.728;9.228;2023-08-12T02:36:51;17.70;99.90
2897;DHT22;1458;49.728;9.228;2023-08-12T02:39:18;17.70;99.90
2897;DHT22;1458;49.728;9.228;2023-08-12T02:41:46;17.70;99.90
2897;DHT22;1458;49.728;9.228;2023-08-12T02:44:13;17.70;99.90
2897;DHT22;1458;49.728;9.228;2023-08-12T02:46:41;17.70;99.90
2897;DHT22;1458;49.728;9.228;2023-08-12T02:49:09;17.70;99.90
2897;DHT22;1458;49.728;9.228;2023-08-12T02:51:37;17.70;99.90
2897;DHT22;1458;49.728;9.228;2023-08-12T02:54:05;17.70;99.90
2897;DHT22;1458;49.728;9.228;2023-08-12T02:56:32;17.70;99.90
2897;DHT22;1458;49.728;9.228;2023-08-12T02:58:59;17.70;99.90
2897;DHT22;1458;49.728;9.228;2023-08-12T03:01:27;17.70;99.90
2897;DHT22;1458;49.728;9.228;2023-08-12T03:03:54;17.80;99.90
2897;DHT22;1458;49.728;9.228;2023-08-12T03:06:23;17.80;99.90
2897;DHT22;1458;49.728;9.228;2023-08-12T03:08:51;17.80;99.90
2897;DHT22;1458;49.728;9.228;2023-08-12T03:11:18;17.90;99.90
2897;DHT22;1458;49.728;9.228;2023-08-12T03:13:46;17.90;99.90
2897;DHT22;1458;49.728;9.228;2023-08-12T03:16:14;17.90;99.90
2897;DHT22;1458;49.728;9.228;2023-08-12T03:18:44;17.90;99.90
2897;DHT22;1458;49.728;9.228;2023-08-12T03:21:11;17.90;99.90
2897;DHT22;1458;49.728;9.228;2023-08-12T03:23:41;17.90;99.90
2897;DHT22;1458;49.728;9.228;2023-08-12T03:26:10;17.90;99.90
2897;DHT22;1458;49.728;9.228;2023-08-12T03:28:37;17.90;99.90
2897;DHT22;1458;49.728;9.228;2023-08-12T03:31:06;17.90;99.90
2897;DHT22;1458;49.728;9.228;2023-08-12T03:33:35;18.00;99.90
2897;DHT22;1458;49.728;9.228;2023-08-12T03:36:03;18.00;99.90
2897;DHT22;1458;49.728;9.228;2023-08-12T03:38:32;18.00;99.90
2897;DHT22;1458;49.728;9.228;2023-08-12T03:41:03;18.00;99.90
2897;DHT22;1458;49.728;9.228;2023-08-12T03:43:33;18.00;99.90
2897;DHT22;1458;49.728;9.228;2023-08-12T03:46:00;17.90;99.90
2897;DHT22;1458;49.728;9.228;2023-08-12T03:48:28;17.80;99.90
2897;DHT22;1458;49.728;9.228;2023-08-12T03:50:57;17.80;99.90
2897;DHT22;1458;49.728;9.228;2023-08-12T03:53:24;17.80;99.90
2897;DHT22;1458;49.728;9.228;2023-08-12T03:55:53;17.70;99.90
2897;DHT22;1458;49.728;9.228;2023-08-12T03:58:22;17.70;99.90
2897;DHT22;1458;49.728;9.228;2023-08-12T04:00:49;17.80;99.90
2897;DHT22;1458;49.728;9.228;2023-08-12T04:03:17;17.90;99.90
2897;DHT22;1458;49.728;9.228;2023-08-12T04:05:48;17.90;99.90
2897;DHT22;1458;49.728;9.228;2023-08-12T04:08:18;17.80;99.90
2897;DHT22;1458;49.728;9.228;2023-08-12T04:10:46;17.80;99.90
2897;DHT22;1458;49.728;9.228;2023-08-12T04:13:14;17.80;99.90
2897;DHT22;1458;49.728;9.228;2023-08-12T04:15:48;17.80;99.90
2897;DHT22;1458;49.728;9.228;2023-08-12T04:18:17;17.90;99.90
2897;DHT22;1458;49.728;9.228;2023-08-12T04:20:45;17.90;99.90
2897;DHT22;1458;49.728;9.228;2023-08-12T04:23:13;17.90;99.90
2897;DHT22;1458;49.728;9.228;2023-08-12T04:25:43;17.90;99.90
2897;DHT22;1458;49.728;9.228;2023-08-12T04:28:12;17.90;99.90
2897;DHT22;1458;49.728;9.228;2023-08-12T04:30:45;18.00;99.90
2897;DHT22;1458;49.728;9.228;2023-08-12T04:33:15;17.90;99.90
2897;DHT22;1458;49.728;9.228;2023-08-12T04:35:43;17.80;99.90
2897;DHT22;1458;49.728;9.228;2023-08-12T04:38:11;17.80;99.90
2897;DHT22;1458;49.728;9.228;2023-08-12T04:40:40;17.90;99.90
2897;DHT22;1458;49.728;9.228;2023-08-12T04:43:08;17.90;99.90
2897;DHT22;1458;49.728;9.228;2023-08-12T04:45:37;17.90;99.90
2897;DHT22;1458;49.728;9.228;2023-08-12T04:48:06;17.90;99.90
2897;DHT22;1458;49.728;9.228;2023-08-12T04:50:37;18.00;99.90
2897;DHT22;1458;49.728;9.228;2023-08-12T04:53:04;17.90;99.90
2897;DHT22;1458;49.728;9.228;2023-08-12T04:55:32;18.00;99.90
2897;DHT22;1458;49.728;9.228;2023-08-12T04:58:01;18.00;99.90
2897;DHT22;1458;49.728;9.228;2023-08-12T05:00:29;18.00;99.90
2897;DHT22;1458;49.728;9.228;2023-08-12T05:03:00;18.00;99.90
2897;DHT22;1458;49.728;9.228;2023-08-12T05:05:28;18.10;99.90
2897;DHT22;1458;49.728;9.228;2023-08-12T05:07:56;18.20;99.90
2897;DHT22;1458;49.728;9.228;2023-08-12T05:10:23;18.20;99.90
2897;DHT22;1458;49.728;9.228;2023-08-12T05:12:51;18.40;99.90
2897;DHT22;1458;49.728;9.228;2023-08-12T05:15:20;18.40;99.90
2897;DHT22;1458;49.728;9.228;2023-08-12T05:17:48;18.40;99.90
2897;DHT22;1458;49.728;9.228;2023-08-12T05:20:19;18.40;99.90
2897;DHT22;1458;49.728;9.228;2023-08-12T05:22:48;18.40;99.90
2897;DHT22;1458;49.728;9.228;2023-08-12T05:25:15;18.40;99.90
2897;DHT22;1458;49.728;9.228;2023-08-12T05:27:43;18.40;99.90
2897;DHT22;1458;49.728;9.228;2023-08-12T05:30:11;18.50;99.90
2897;DHT22;1458;49.728;9.228;2023-08-12T05:32:39;18.40;99.90
2897;DHT22;1458;49.728;9.228;2023-08-12T05:35:07;18.40;99.90
2897;DHT22;1458;49.728;9.228;2023-08-12T05:37:35;18.40;99.90
2897;DHT22;1458;49.728;9.228;2023-08-12T05:40:05;18.30;99.90
2897;DHT22;1458;49.728;9.228;2023-08-12T05:42:34;18.50;99.90
2897;DHT22;1458;49.728;9.228;2023-08-12T05:45:02;18.60;99.90
2897;DHT22;1458;49.728;9.228;2023-08-12T05:47:30;18.80;99.90
2897;DHT22;1458;49.728;9.228;2023-08-12T05:49:58;18.70;99.90
2897;DHT22;1458;49.728;9.228;2023-08-12T05:52:26;18.60;99.90
2897;DHT22;1458;49.728;9.228;2023-08-12T05:54:53;18.70;99.90
2897;DHT22;1458;49.728;9.228;2023-08-12T05:57:22;18.80;99.90
2897;DHT22;1458;49.728;9.228;2023-08-12T05:59:50;19.00;99.90
2897;DHT22;1458;49.728;9.228;2023-08-12T06:02:17;19.50;99.90
2897;DHT22;1458;49.728;9.228;2023-08-12T06:04:45;20.20;99.90
2897;DHT22;1458;49.728;9.228;2023-08-12T06:07:12;20.30;99.90
2897;DHT22;1458;49.728;9.228;2023-08-12T06:09:39;20.20;99.90
2897;DHT22;1458;49.728;9.228;2023-08-12T06:12:07;20.00;99.90
2897;DHT22;1458;49.728;9.228;2023-08-12T06:14:37;19.90;99.90
2897;DHT22;1458;49.728;9.228;2023-08-12T06:17:05;19.80;99.90
2897;DHT22;1458;49.728;9.228;2023-08-12T06:19:32;19.80;99.90
2897;DHT22;1458;49.728;9.228;2023-08-12T06:22:00;20.00;99.90
2897;DHT22;1458;49.728;9.228;2023-08-12T06:24:29;20.30;99.90
2897;DHT22;1458;49.728;9.228;2023-08-12T06:26:56;20.50;99.90
2897;DHT22;1458;49.728;9.228;2023-08-12T06:29:23;20.60;99.90
2897;DHT22;1458;49.728;9.228;2023-08-12T06:31:53;20.90;99.90
2897;DHT22;1458;49.728;9.228;2023-08-12T06:34:21;21.20;99.90
2897;DHT22;1458;49.728;9.228;2023-08-12T06:36:48;21.50;99.30
2897;DHT22;1458;49.728;9.228;2023-08-12T06:39:16;21.40;98.60
2897;DHT22;1458;49.728;9.228;2023-08-12T06:41:43;21.50;98.10
2897;DHT22;1458;49.728;9.228;2023-08-12T06:44:11;21.40;97.80
2897;DHT22;1458;49.728;9.228;2023-08-12T06:46:39;21.40;97.60
2897;DHT22;1458;49.728;9.228;2023-08-12T06:49:07;21.40;98.30
2897;DHT22;1458;49.728;9.228;2023-08-12T06:51:35;21.40;98.60
2897;DHT22;1458;49.728;9.228;2023-08-12T06:54:02;21.40;98.40
2897;DHT22;1458;49.728;9.228;2023-08-12T06:56:30;21.50;99.00
2897;DHT22;1458;49.728;9.228;2023-08-12T06:58:58;21.40;97.90
2897;DHT22;1458;49.728;9.228;2023-08-12T07:01:25;21.60;99.00
2897;DHT22;1458;49.728;9.228;2023-08-12T07:03:53;21.80;98.80
2897;DHT22;1458;49.728;9.228;2023-08-12T07:06:22;22.30;98.30
2897;DHT22;1458;49.728;9.228;2023-08-12T07:08:49;22.70;96.50
2897;DHT22;1458;49.728;9.228;2023-08-12T07:11:17;23.10;96.40
2897;DHT22;1458;49.728;9.228;2023-08-12T07:13:44;23.60;94.80
2897;DHT22;1458;49.728;9.228;2023-08-12T07:16:12;24.00;94.40
2897;DHT22;1458;49.728;9.228;2023-08-12T07:18:40;24.10;92.00
2897;DHT22;1458;49.728;9.228;2023-08-12T07:21:07;24.30;91.00
2897;DHT22;1458;49.728;9.228;2023-08-12T07:23:36;24.00;91.30
2897;DHT22;1458;49.728;9.228;2023-08-12T07:26:04;23.40;91.10
2897;DHT22;1458;49.728;9.228;2023-08-12T07:28:31;23.20;92.20
2897;DHT22;1458;49.728;9.228;2023-08-12T07:31:00;23.20;92.20
2897;DHT22;1458;49.728;9.228;2023-08-12T07:33:28;23.70;93.20
2897;DHT22;1458;49.728;9.228;2023-08-12T07:35:56;24.00;91.10
2897;DHT22;1458;49.728;9.228;2023-08-12T07:38:23;24.10;93.10
2897;DHT22;1458;49.728;9.228;2023-08-12T07:40:52;24.20;91.60
2897;DHT22;1458;49.728;9.228;2023-08-12T07:43:20;24.20;91.70
2897;DHT22;1458;49.728;9.228;2023-08-12T07:45:51;24.10;91.00
2897;DHT22;1458;49.728;9.228;2023-08-12T07:48:19;24.10;91.10
2897;DHT22;1458;49.728;9.228;2023-08-12T07:50:46;24.30;91.20
2897;DHT22;1458;49.728;9.228;2023-08-12T07:53:15;24.30;90.80
2897;DHT22;1458;49.728;9.228;2023-08-12T07:55:42;24.30;90.60
2897;DHT22;1458;49.728;9.228;2023-08-12T07:58:11;24.40;90.50
2897;DHT22;1458;49.728;9.228;2023-08-12T08:00:39;24.50;89.20
2897;DHT22;1458;49.728;9.228;2023-08-12T08:03:06;24.40;89.20
2897;DHT22;1458;49.728;9.228;2023-08-12T08:05:34;24.30;88.60
2897;DHT22;1458;49.728;9.228;2023-08-12T08:08:01;23.90;90.30
2897;DHT22;1458;49.728;9.228;2023-08-12T08:10:29;23.60;91.10
2897;DHT22;1458;49.728;9.228;2023-08-12T08:12:57;23.60;92.60
2897;DHT22;1458;49.728;9.228;2023-08-12T08:15:26;23.70;93.70
2897;DHT22;1458;49.728;9.228;2023-08-12T08:17:53;24.10;94.20
2897;DHT22;1458;49.728;9.228;2023-08-12T08:20:21;24.20;92.20
2897;DHT22;1458;49.728;9.228;2023-08-12T08:22:49;24.30;92.00
2897;DHT22;1458;49.728;9.228;2023-08-12T08:25:16;24.40;91.70
2897;DHT22;1458;49.728;9.228;2023-08-12T08:27:44;24.50;91.10
2897;DHT22;1458;49.728;9.228;2023-08-12T08:30:12;24.40;91.40
2897;DHT22;1458;49.728;9.228;2023-08-12T08:32:41;24.40;90.70
2897;DHT22;1458;49.728;9.228;2023-08-12T08:35:08;24.30;91.70
2897;DHT22;1458;49.728;9.228;2023-08-12T08:37:36;24.40;91.40
2897;DHT22;1458;49.728;9.228;2023-08-12T08:40:04;24.60;91.80
2897;DHT22;1458;49.728;9.228;2023-08-12T08:42:34;24.70;91.90
2897;DHT22;1458;49.728;9.228;2023-08-12T08:45:02;24.70;91.10
2897;DHT22;1458;49.728;9.228;2023-08-12T08:47:32;24.90;91.20
2897;DHT22;1458;49.728;9.228;2023-08-12T08:50:01;25.20;91.40
2897;DHT22;1458;49.728;9.228;2023-08-12T08:52:29;25.40;90.70
2897;DHT22;1458;49.728;9.228;2023-08-12T08:55:00;25.60;90.50
2897;DHT22;1458;49.728;9.228;2023-08-12T08:57:28;25.70;89.30
2897;DHT22;1458;49.728;9.228;2023-08-12T08:59:56;25.60;90.10
2897;DHT22;1458;49.728;9.228;2023-08-12T09:02:25;26.00;87.20
2897;DHT22;1458;49.728;9.228;2023-08-12T09:04:53;26.10;89.20
2897;DHT22;1458;49.728;9.228;2023-08-12T09:07:23;26.20;87.70
2897;DHT22;1458;49.728;9.228;2023-08-12T09:09:52;26.60;88.70
2897;DHT22;1458;49.728;9.228;2023-08-12T09:12:20;27.00;86.00
2897;DHT22;1458;49.728;9.228;2023-08-12T09:14:48;27.10;83.20
2897;DHT22;1458;49.728;9.228;2023-08-12T09:17:16;27.10;84.60
2897;DHT22;1458;49.728;9.228;2023-08-12T09:19:43;27.20;81.10
2897;DHT22;1458;49.728;9.228;2023-08-12T09:22:11;27.30;82.30
2897;DHT22;1458;49.728;9.228;2023-08-12T09:24:40;27.20;80.20
2897;DHT22;1458;49.728;9.228;2023-08-12T09:27:10;27.00;81.00
2897;DHT22;1458;49.728;9.228;2023-08-12T09:29:37;26.90;81.00
2897;DHT22;1458;49.728;9.228;2023-08-12T09:32:10;27.00;81.80
2897;DHT22;1458;49.728;9.228;2023-08-12T09:34:43;27.20;80.20
2897;DHT22;1458;49.728;9.228;2023-08-12T09:37:13;27.20;81.50
2897;DHT22;1458;49.728;9.228;2023-08-12T09:39:42;27.30;79.60
2897;DHT22;1458;49.728;9.228;2023-08-12T09:42:11;27.40;79.30
2897;DHT22;1458;49.728;9.228;2023-08-12T09:44:38;27.30;82.10
2897;DHT22;1458;49.728;9.228;2023-08-12T09:47:06;27.40;76.40
2897;DHT22;1458;49.728;9.228;2023-08-12T09:49:35;27.40;77.20
2897;DHT22;1458;49.728;9.228;2023-08-12T09:52:03;27.30;79.10
2897;DHT22;1458;49.728;9.228;2023-08-12T09:54:32;27.30;78.40
2897;DHT22;1458;49.728;9.228;2023-08-12T09:57:04;27.60;77.30
2897;DHT22;1458;49.728;9.228;2023-08-12T09:59:34;27.70;74.00
2897;DHT22;1458;49.728;9.228;2023-08-12T10:02:03;27.70;72.30
2897;DHT22;1458;49.728;9.228;2023-08-12T10:04:36;27.60;70.20
2897;DHT22;1458;49.728;9.228;2023-08-12T10:07:08;27.80;77.40
2897;DHT22;1458;49.728;9.228;2023-08-12T10:09:39;28.50;76.00
2897;DHT22;1458;49.728;9.228;2023-08-12T10:12:09;28.40;69.70
2897;DHT22;1458;49.728;9.228;2023-08-12T10:14:37;28.00;68.90
2897;DHT22;1458;49.728;9.228;2023-08-12T10:17:05;27.60;72.40
2897;DHT22;1458;49.728;9.228;2023-08-12T10:19:36;27.70;72.50
2897;DHT22;1458;49.728;9.228;2023-08-12T10:22:03;27.80;71.30
2897;DHT22;1458;49.728;9.228;2023-08-12T10:24:31;28.00;72.30
2897;DHT22;1458;49.728;9.228;2023-08-12T10:27:02;27.90;69.20
2897;DHT22;1458;49.728;9.228;2023-08-12T10:29:31;28.00;69.40
2897;DHT22;1458;49.728;9.228;2023-08-12T10:31:59;28.30;68.30
2897;DHT22;1458;49.728;9.228;2023-08-12T10:34:27;28.10;70.00
2897;DHT22;1458;49.728;9.228;2023-08-12T10:36:54;27.90;67.30
2897;DHT22;1458;49.728;9.228;2023-08-12T10:39:25;27.90;67.70
2897;DHT22;1458;49.728;9.228;2023-08-12T10:41:55;27.80;68.30
2897;DHT22;1458;49.728;9.228;2023-08-12T10:44:27;27.70;73.80
2897;DHT22;1458;49.728;9.228;2023-08-12T10:47:08;27.50;72.80
2897;DHT22;1458;49.728;9.228;2023-08-12T10:49:38;27.70;72.30
2897;DHT22;1458;49.728;9.228;2023-08-12T10:52:25;27.90;69.20
2897;DHT22;1458;49.728;9.228;2023-08-12T10:54:53;28.50;71.40
2897;DHT22;1458;49.728;9.228;2023-08-12T10:57:34;28.70;66.40
2897;DHT22;1458;49.728;9.228;2023-08-12T11:00:04;29.20;68.10
2897;DHT22;1458;49.728;9.228;2023-08-12T11:02:35;29.40;65.80
2897;DHT22;1458;49.728;9.228;2023-08-12T11:05:08;29.40;66.60
2897;DHT22;1458;49.728;9.228;2023-08-12T11:07:39;29.50;62.80
2897;DHT22;1458;49.728;9.228;2023-08-12T11:10:12;29.10;64.10
2897;DHT22;1458;49.728;9.228;2023-08-12T11:12:48;28.90;65.40
2897;DHT22;1458;49.728;9.228;2023-08-12T11:15:29;28.60;65.80
2897;DHT22;1458;49.728;9.228;2023-08-12T11:18:02;28.10;67.00
2897;DHT22;1458;49.728;9.228;2023-08-12T11:20:31;27.60;69.90
2897;DHT22;1458;49.728;9.228;2023-08-12T11:23:00;27.10;71.40
2897;DHT22;1458;49.728;9.228;2023-08-12T11:25:28;26.70;74.00
2897;DHT22;1458;49.728;9.228;2023-08-12T11:27:57;26.40;77.80
2897;DHT22;1458;49.728;9.228;2023-08-12T11:30:26;26.00;83.10
2897;DHT22;1458;49.728;9.228;2023-08-12T11:32:54;25.50;87.30
2897;DHT22;1458;49.728;9.228;2023-08-12T11:35:24;25.20;90.30
2897;DHT22;1458;49.728;9.228;2023-08-12T11:37:55;24.70;93.40
2897;DHT22;1458;49.728;9.228;2023-08-12T11:40:24;24.20;95.30
2897;DHT22;1458;49.728;9.228;2023-08-12T11:42:53;23.90;97.50
2897;DHT22;1458;49.728;9.228;2023-08-12T11:45:24;23.50;99.90
2897;DHT22;1458;49.728;9.228;2023-08-12T11:47:52;23.20;99.90
2897;DHT22;1458;49.728;9.228;2023-08-12T11:50:21;22.80;99.90
2897;DHT22;1458;49.728;9.228;2023-08-12T11:52:52;22.60;99.90
2897;DHT22;1458;49.728;9.228;2023-08-12T11:55:20;22.30;99.90
2897;DHT22;1458;49.728;9.228;2023-08-12T11:57:48;22.20;99.90
2897;DHT22;1458;49.728;9.228;2023-08-12T12:00:15;22.00;99.90
2897;DHT22;1458;49.728;9.228;2023-08-12T12:02:47;22.00;99.90
2897;DHT22;1458;49.728;9.228;2023-08-12T12:05:16;22.00;99.90
2897;DHT22;1458;49.728;9.228;2023-08-12T12:07:45;21.90;99.90
2897;DHT22;1458;49.728;9.228;2023-08-12T12:10:13;21.80;99.90
2897;DHT22;1458;49.728;9.228;2023-08-12T12:12:44;21.80;99.90
2897;DHT22;1458;49.728;9.228;2023-08-12T12:15:13;21.60;99.90
2897;DHT22;1458;49.728;9.228;2023-08-12T12:17:41;20.90;99.90
2897;DHT22;1458;49.728;9.228;2023-08-12T12:20:10;20.40;99.90
2897;DHT22;1458;49.728;9.228;2023-08-12T12:22:38;20.10;99.90
2897;DHT22;1458;49.728;9.228;2023-08-12T12:25:09;19.90;99.90
2897;DHT22;1458;49.728;9.228;2023-08-12T12:27:38;19.70;99.90
2897;DHT22;1458;49.728;9.228;2023-08-12T12:30:08;19.60;99.90
2897;DHT22;1458;49.728;9.228;2023-08-12T12:32:36;19.70;99.90
2897;DHT22;1458;49.728;9.228;2023-08-12T12:35:05;19.70;99.90
2897;DHT22;1458;49.728;9.228;2023-08-12T12:37:34;19.60;99.90
2897;DHT22;1458;49.728;9.228;2023-08-12T12:40:02;19.70;99.90
2897;DHT22;1458;49.728;9.228;2023-08-12T12:42:32;19.60;99.90
2897;DHT22;1458;49.728;9.228;2023-08-12T12:44:59;19.70;99.90
2897;DHT22;1458;49.728;9.228;2023-08-12T12:47:26;19.70;99.90
2897;DHT22;1458;49.728;9.228;2023-08-12T12:49:54;19.70;99.90
2897;DHT22;1458;49.728;9.228;2023-08-12T12:52:21;19.70;99.90
2897;DHT22;1458;49.728;9.228;2023-08-12T12:54:49;19.80;99.90
2897;DHT22;1458;49.728;9.228;2023-08-12T12:57:16;19.80;99.90
2897;DHT22;1458;49.728;9.228;2023-08-12T12:59:45;19.80;99.90
2897;DHT22;1458;49.728;9.228;2023-08-12T13:02:12;19.90;99.90
2897;DHT22;1458;49.728;9.228;2023-08-12T13:04:40;20.00;99.90
2897;DHT22;1458;49.728;9.228;2023-08-12T13:07:08;20.00;99.90
2897;DHT22;1458;49.728;9.228;2023-08-12T13:09:35;20.00;99.90
2897;DHT22;1458;49.728;9.228;2023-08-12T13:12:03;20.20;99.90
2897;DHT22;1458;49.728;9.228;2023-08-12T13:14:31;20.60;99.90
2897;DHT22;1458;49.728;9.228;2023-08-12T13:17:00;21.10;99.90
2897;DHT22;1458;49.728;9.228;2023-08-12T13:19:27;21.60;99.90
2897;DHT22;1458;49.728;9.228;2023-08-12T13:21:55;22.10;99.90
2897;DHT22;1458;49.728;9.228;2023-08-12T13:24:22;22.40;99.90
2897;DHT22;1458;49.728;9.228;2023-08-12T13:26:50;22.60;99.90
2897;DHT22;1458;49.728;9.228;2023-08-12T13:29:18;22.80;99.90
2897;DHT22;1458;49.728;9.228;2023-08-12T13:31:45;22.50;99.90
2897;DHT22;1458;49.728;9.228;2023-08-12T13:34:14;22.30;99.90
2897;DHT22;1458;49.728;9.228;2023-08-12T13:36:42;22.20;99.90
2897;DHT22;1458;49.728;9.228;2023-08-12T13:39:09;22.00;99.90
2897;DHT22;1458;49.728;9.228;2023-08-12T13:41:36;21.80;99.90
2897;DHT22;1458;49.728;9.228;2023-08-12T13:44:04;21.40;99.90
2897;DHT22;1458;49.728;9.228;2023-08-12T13:46:32;21.30;99.90
2897;DHT22;1458;49.728;9.228;2023-08-12T13:48:59;21.20;99.90
2897;DHT22;1458;49.728;9.228;2023-08-12T13:51:28;21.20;99.90
2897;DHT22;1458;49.728;9.228;2023-08-12T13:53:56;21.20;99.90
2897;DHT22;1458;49.728;9.228;2023-08-12T13:56:24;21.30;99.90
2897;DHT22;1458;49.728;9.228;2023-08-12T13:58:51;21.10;99.90
2897;DHT22;1458;49.728;9.228;2023-08-12T14:01:19;20.90;99.90
2897;DHT22;1458;49.728;9.228;2023-08-12T14:03:47;20.60;99.90
2897;DHT22;1458;49.728;9.228;2023-08-12T14:06:15;20.60;99.90
2897;DHT22;1458;49.728;9.228;2023-08-12T14:08:43;20.70;99.90
2897;DHT22;1458;49.728;9.228;2023-08-12T14:11:11;20.80;99.90
2897;DHT22;1458;49.728;9.228;2023-08-12T14:13:38;21.10;99.90
2897;DHT22;1458;49.728;9.228;2023-08-12T14:16:06;21.40;99.90
2897;DHT22;1458;49.728;9.228;2023-08-12T14:18:33;21.60;99.90
2897;DHT22;1458;49.728;9.228;2023-08-12T14:21:00;21.80;99.90
2897;DHT22;1458;49.728;9.228;2023-08-12T14:23:28;21.70;99.90
2897;DHT22;1458;49.728;9.228;2023-08-12T14:25:57;21.70;99.90
2897;DHT22;1458;49.728;9.228;2023-08-12T14:28:24;21.90;99.90
2897;DHT22;1458;49.728;9.228;2023-08-12T14:30:51;22.20;99.90
2897;DHT22;1458;49.728;9.228;2023-08-12T14:33:20;22.40;99.90
2897;DHT22;1458;49.728;9.228;2023-08-12T14:35:50;22.30;99.90
2897;DHT22;1458;49.728;9.228;2023-08-12T14:38:19;22.30;99.90
2897;DHT22;1458;49.728;9.228;2023-08-12T14:40:47;22.30;99.90
2897;DHT22;1458;49.728;9.228;2023-08-12T14:43:16;22.40;99.90
2897;DHT22;1458;49.728;9.228;2023-08-12T14:45:44;22.40;99.90
2897;DHT22;1458;49.728;9.228;2023-08-12T14:48:12;22.30;99.90
2897;DHT22;1458;49.728;9.228;2023-08-12T14:50:40;22.20;99.90
2897;DHT22;1458;49.728;9.228;2023-08-12T14:53:08;22.00;99.90
2897;DHT22;1458;49.728;9.228;2023-08-12T14:55:36;22.00;99.90
2897;DHT22;1458;49.728;9.228;2023-08-12T14:58:03;22.10;99.90
2897;DHT22;1458;49.728;9.228;2023-08-12T15:00:32;22.40;99.90
2897;DHT22;1458;49.728;9.228;2023-08-12T15:03:00;22.60;99.90
2897;DHT22;1458;49.728;9.228;2023-08-12T15:05:29;22.70;99.90
2897;DHT22;1458;49.728;9.228;2023-08-12T15:07:56;22.90;99.90
2897;DHT22;1458;49.728;9.228;2023-08-12T15:10:23;22.80;99.90
2897;DHT22;1458;49.728;9.228;2023-08-12T15:12:51;22.60;99.90
2897;DHT22;1458;49.728;9.228;2023-08-12T15:15:19;22.60;99.90
2897;DHT22;1458;49.728;9.228;2023-08-12T15:17:47;22.50;99.90
2897;DHT22;1458;49.728;9.228;2023-08-12T15:20:15;22.50;99.90
2897;DHT22;1458;49.728;9.228;2023-08-12T15:22:43;22.50;99.90
2897;DHT22;1458;49.728;9.228;2023-08-12T15:25:10;22.50;99.90
2897;DHT22;1458;49.728;9.228;2023-08-12T15:27:37;22.50;99.90
2897;DHT22;1458;49.728;9.228;2023-08-12T15:30:06;22.60;99.90
2897;DHT22;1458;49.728;9.228;2023-08-12T15:32:36;22.70;99.90
2897;DHT22;1458;49.728;9.228;2023-08-12T15:35:06;22.70;99.90
2897;DHT22;1458;49.728;9.228;2023-08-12T15:37:35;22.70;99.90
2897;DHT22;1458;49.728;9.228;2023-08-12T15:40:03;22.80;99.90
2897;DHT22;1458;49.728;9.228;2023-08-12T15:42:33;22.80;99.90
2897;DHT22;1458;49.728;9.228;2023-08-12T15:45:01;22.80;99.90
2897;DHT22;1458;49.728;9.228;2023-08-12T15:47:29;22.60;99.90
2897;DHT22;1458;49.728;9.228;2023-08-12T15:49:58;22.60;99.90
2897;DHT22;1458;49.728;9.228;2023-08-12T15:52:27;22.60;99.90
2897;DHT22;1458;49.728;9.228;2023-08-12T15:54:58;22.60;99.90
2897;DHT22;1458;49.728;9.228;2023-08-12T15:57:26;22.60;99.90
2897;DHT22;1458;49.728;9.228;2023-08-12T15:59:53;22.60;99.90
2897;DHT22;1458;49.728;9.228;2023-08-12T16:02:21;22.70;99.90
2897;DHT22;1458;49.728;9.228;2023-08-12T16:04:49;22.70;99.90
2897;DHT22;1458;49.728;9.228;2023-08-12T16:07:16;22.80;99.90
2897;DHT22;1458;49.728;9.228;2023-08-12T16:09:45;22.80;99.90